Time;durP1;ratioP1;P1;durP2;ratioP2;P2;SDS_P1;SDS_P2;PMS_P1;PMS_P2;Temp;Humidity;BMP_temperature;BMP_pressure;BME280_temperature;BME280_humidity;BME280_pressure;Samples;Min_cycle;Max_cycle;Signal;HPM_P1;HPM_P2
2022/07/27 00:00:15;;;;;;;;;;;16.00;99.90;;;;;;5074903;28;19908;-79
2022/07/27 00:02:40;;;;;;;;;;;16.00;99.90;;;;;;5074526;28;19944;-81
2022/07/27 00:05:06;;;;;;;;;;;16.10;99.90;;;;;;5074358;28;20369;-80
2022/07/27 00:07:32;;;;;;;;;;;16.20;99.90;;;;;;5074292;28;19909;-78
2022/07/27 00:09:57;;;;;;;;;;;16.20;99.90;;;;;;5056298;28;20257;-81
2022/07/27 00:12:23;;;;;;;;;;;16.20;99.90;;;;;;5074344;28;19915;-78
2022/07/27 00:14:48;;;;;;;;;;;16.20;99.90;;;;;;5074916;28;19923;-80
2022/07/27 00:17:14;;;;;;;;;;;16.20;99.90;;;;;;5074095;28;19912;-79
2022/07/27 00:19:40;;;;;;;;;;;16.30;99.90;;;;;;5074187;28;19916;-79
2022/07/27 00:22:05;;;;;;;;;;;16.30;99.90;;;;;;5074173;28;19916;-81
2022/07/27 00:24:31;;;;;;;;;;;16.30;99.90;;;;;;5074097;28;19908;-79
2022/07/27 00:26:57;;;;;;;;;;;16.30;99.90;;;;;;5073966;28;20387;-80
2022/07/27 00:29:22;;;;;;;;;;;16.00;99.90;;;;;;5073883;28;19916;-80
2022/07/27 00:31:48;;;;;;;;;;;15.70;99.90;;;;;;5074078;28;20325;-80
2022/07/27 00:34:13;;;;;;;;;;;15.20;99.90;;;;;;5073531;28;19916;-78
2022/07/27 00:36:39;;;;;;;;;;;15.00;99.90;;;;;;5073508;28;19966;-77
2022/07/27 00:39:04;;;;;;;;;;;15.00;99.90;;;;;;5073717;28;20396;-77
2022/07/27 00:41:30;;;;;;;;;;;15.20;99.90;;;;;;5073613;28;19917;-78
2022/07/27 00:43:56;;;;;;;;;;;15.50;99.90;;;;;;5073943;28;19920;-81
2022/07/27 00:46:23;;;;;;;;;;;15.70;99.90;;;;;;5073769;28;20368;-80
2022/07/27 00:48:49;;;;;;;;;;;15.80;99.90;;;;;;5073627;28;19915;-78
2022/07/27 00:51:16;;;;;;;;;;;15.80;99.90;;;;;;5073696;28;20271;-81
2022/07/27 00:53:42;;;;;;;;;;;15.80;99.90;;;;;;5073807;28;19908;-79
2022/07/27 00:56:08;;;;;;;;;;;15.80;99.90;;;;;;5073594;28;19951;-79
2022/07/27 00:58:34;;;;;;;;;;;15.80;99.90;;;;;;5073556;28;19951;-78
2022/07/27 01:01:00;;;;;;;;;;;15.80;99.90;;;;;;5073965;28;19931;-81
2022/07/27 01:03:25;;;;;;;;;;;15.70;99.90;;;;;;5073539;28;20372;-81
2022/07/27 01:05:51;;;;;;;;;;;15.70;99.90;;;;;;5073601;28;19915;-77
2022/07/27 01:08:17;;;;;;;;;;;15.60;99.90;;;;;;5055465;28;20356;-81
2022/07/27 01:10:43;;;;;;;;;;;15.50;99.90;;;;;;5073969;28;19908;-81
2022/07/27 01:13:09;;;;;;;;;;;15.50;99.90;;;;;;5073530;28;20403;-82
2022/07/27 01:15:36;;;;;;;;;;;15.40;99.90;;;;;;5073951;28;19912;-81
2022/07/27 01:18:02;;;;;;;;;;;15.30;99.90;;;;;;5073385;28;19951;-81
2022/07/27 01:20:27;;;;;;;;;;;15.40;99.90;;;;;;5073805;28;19944;-81
2022/07/27 01:22:53;;;;;;;;;;;15.40;99.90;;;;;;5073364;28;19944;-80
2022/07/27 01:25:18;;;;;;;;;;;15.50;99.90;;;;;;5073374;28;20288;-80
2022/07/27 01:27:44;;;;;;;;;;;15.50;99.90;;;;;;5073238;28;19912;-78
2022/07/27 01:30:25;;;;;;;;;;;15.50;99.90;;;;;;5073309;28;20384;-82
2022/07/27 01:33:03;;;;;;;;;;;15.30;99.90;;;;;;5073554;28;19920;-82
2022/07/27 01:35:29;;;;;;;;;;;15.10;99.90;;;;;;5055294;28;19908;-80
2022/07/27 01:37:55;;;;;;;;;;;14.60;99.90;;;;;;5073112;28;19963;-78
2022/07/27 01:40:21;;;;;;;;;;;14.60;99.90;;;;;;5073293;28;19908;-77
2022/07/27 01:42:47;;;;;;;;;;;14.50;99.90;;;;;;5072919;28;19943;-82
2022/07/27 01:45:13;;;;;;;;;;;14.20;99.90;;;;;;5073198;28;20288;-80
2022/07/27 01:47:38;;;;;;;;;;;14.40;99.90;;;;;;5076133;28;19912;-80
2022/07/27 01:50:04;;;;;;;;;;;14.70;99.90;;;;;;5058974;28;19919;-78
2022/07/27 01:52:30;;;;;;;;;;;14.90;99.90;;;;;;5076934;28;19935;-78
2022/07/27 01:54:55;;;;;;;;;;;15.00;99.90;;;;;;5058834;28;19908;-78
2022/07/27 01:57:21;;;;;;;;;;;15.00;99.90;;;;;;5076832;28;20424;-79
2022/07/27 01:59:46;;;;;;;;;;;14.80;99.90;;;;;;5076756;28;19912;-80
2022/07/27 02:02:14;;;;;;;;;;;14.70;99.90;;;;;;5076686;28;19916;-79
2022/07/27 02:04:43;;;;;;;;;;;14.70;99.90;;;;;;5076656;28;20402;-78
2022/07/27 02:07:08;;;;;;;;;;;14.70;99.90;;;;;;5076801;28;19909;-79
2022/07/27 02:09:34;;;;;;;;;;;14.40;99.90;;;;;;5076754;28;19908;-80
2022/07/27 02:14:43;;;;;;;;;;;14.20;99.90;;;;;;5076964;28;19931;-78
2022/07/27 02:17:09;;;;;;;;;;;14.20;99.90;;;;;;5076510;28;20369;-80
2022/07/27 02:19:35;;;;;;;;;;;13.90;99.90;;;;;;5076378;28;19912;-82
2022/07/27 02:22:00;;;;;;;;;;;14.00;99.90;;;;;;5076317;28;20334;-79
2022/07/27 02:24:26;;;;;;;;;;;14.20;99.90;;;;;;5076499;28;20357;-78
2022/07/27 02:26:52;;;;;;;;;;;14.30;99.90;;;;;;5076652;28;20314;-80
2022/07/27 02:29:18;;;;;;;;;;;14.50;99.90;;;;;;5076255;28;19912;-79
2022/07/27 02:31:43;;;;;;;;;;;14.40;99.90;;;;;;5076241;28;19915;-81
2022/07/27 02:34:09;;;;;;;;;;;14.40;99.90;;;;;;5076110;28;20388;-81
2022/07/27 02:36:34;;;;;;;;;;;14.30;99.90;;;;;;5076101;28;19908;-79
2022/07/27 02:39:00;;;;;;;;;;;14.20;99.90;;;;;;5075922;28;20330;-82
2022/07/27 02:41:25;;;;;;;;;;;14.00;99.90;;;;;;5075829;28;20446;-78
2022/07/27 02:43:51;;;;;;;;;;;13.80;99.90;;;;;;5075982;28;19920;-81
2022/07/27 02:46:17;;;;;;;;;;;13.60;99.90;;;;;;5076068;28;20304;-79
2022/07/27 02:48:42;;;;;;;;;;;13.80;99.90;;;;;;5075829;28;19940;-77
2022/07/27 02:51:08;;;;;;;;;;;14.00;99.90;;;;;;5075819;28;20376;-80
2022/07/27 02:53:33;;;;;;;;;;;14.10;99.90;;;;;;5057829;28;19909;-83
2022/07/27 02:55:59;;;;;;;;;;;14.10;99.90;;;;;;5075776;28;19908;-79
2022/07/27 02:58:24;;;;;;;;;;;14.00;99.90;;;;;;5074724;28;19948;-80
2022/07/27 03:00:51;;;;;;;;;;;13.90;99.90;;;;;;5075901;28;20322;-79
2022/07/27 03:03:16;;;;;;;;;;;13.80;99.90;;;;;;5057890;28;19934;-80
2022/07/27 03:05:42;;;;;;;;;;;13.90;99.90;;;;;;5075814;28;19908;-79
2022/07/27 03:08:08;;;;;;;;;;;13.90;99.90;;;;;;5075525;28;20281;-79
2022/07/27 03:10:34;;;;;;;;;;;14.10;99.90;;;;;;5076059;28;20383;-80
2022/07/27 03:12:59;;;;;;;;;;;14.00;99.90;;;;;;5075437;28;19916;-80
2022/07/27 03:15:25;;;;;;;;;;;14.00;99.90;;;;;;5076472;28;20402;-79
2022/07/27 03:17:50;;;;;;;;;;;14.00;99.90;;;;;;5075288;28;19944;-78
2022/07/27 03:20:16;;;;;;;;;;;13.90;99.90;;;;;;5075197;28;20280;-80
2022/07/27 03:22:42;;;;;;;;;;;13.90;99.90;;;;;;5075609;28;19947;-81
2022/07/27 03:25:08;;;;;;;;;;;13.80;99.90;;;;;;5075308;28;20042;-79
2022/07/27 03:27:34;;;;;;;;;;;13.70;99.90;;;;;;5075223;28;19916;-80
2022/07/27 03:29:59;;;;;;;;;;;13.70;99.90;;;;;;5057086;28;20324;-79
2022/07/27 03:32:25;;;;;;;;;;;13.70;99.90;;;;;;5075009;28;19908;-80
2022/07/27 03:34:50;;;;;;;;;;;13.60;99.90;;;;;;5075038;28;19916;-78
2022/07/27 03:37:17;;;;;;;;;;;13.70;99.90;;;;;;5074919;28;20403;-78
2022/07/27 03:39:43;;;;;;;;;;;13.80;99.90;;;;;;5056912;28;19913;-78
2022/07/27 03:42:09;;;;;;;;;;;13.70;99.90;;;;;;5074674;28;19942;-80
2022/07/27 03:44:34;;;;;;;;;;;13.80;99.90;;;;;;5074741;28;19909;-78
2022/07/27 03:47:00;;;;;;;;;;;13.70;99.90;;;;;;5074844;28;20262;-79
2022/07/27 03:49:26;;;;;;;;;;;13.50;99.90;;;;;;5074763;28;19931;-79
2022/07/27 03:51:51;;;;;;;;;;;13.50;99.90;;;;;;5074608;28;19991;-81
2022/07/27 03:54:17;;;;;;;;;;;13.40;99.90;;;;;;5074584;28;19987;-80
2022/07/27 03:56:43;;;;;;;;;;;13.50;99.90;;;;;;5057000;28;19915;-78
2022/07/27 03:59:08;;;;;;;;;;;13.50;99.90;;;;;;5074454;28;19912;-79
2022/07/27 04:01:34;;;;;;;;;;;13.50;99.90;;;;;;5074515;28;19996;-81
2022/07/27 04:04:00;;;;;;;;;;;13.60;99.90;;;;;;5074439;28;19920;-79
2022/07/27 04:06:26;;;;;;;;;;;13.50;99.90;;;;;;5074708;28;19916;-80
2022/07/27 04:08:51;;;;;;;;;;;13.00;99.90;;;;;;5074317;28;19961;-80
2022/07/27 04:11:17;;;;;;;;;;;12.60;99.90;;;;;;5074201;28;19912;-79
2022/07/27 04:13:42;;;;;;;;;;;12.60;99.90;;;;;;5074259;28;20369;-77
2022/07/27 04:16:08;;;;;;;;;;;12.90;99.90;;;;;;5074684;28;20008;-78
2022/07/27 04:18:34;;;;;;;;;;;13.20;99.90;;;;;;5074290;28;19919;-79
2022/07/27 04:21:02;;;;;;;;;;;13.30;99.90;;;;;;5074319;28;19954;-78
2022/07/27 04:23:27;;;;;;;;;;;13.40;99.90;;;;;;5074069;28;19943;-79
2022/07/27 04:25:53;;;;;;;;;;;13.30;99.90;;;;;;5074069;28;20272;-80
2022/07/27 04:28:19;;;;;;;;;;;13.40;99.90;;;;;;5074001;28;20284;-82
2022/07/27 04:30:44;;;;;;;;;;;13.40;99.90;;;;;;5074199;28;19908;-80
2022/07/27 04:33:10;;;;;;;;;;;13.20;99.90;;;;;;5074090;28;19956;-78
2022/07/27 04:35:35;;;;;;;;;;;13.10;99.90;;;;;;5073949;28;20319;-77
2022/07/27 04:38:01;;;;;;;;;;;12.80;99.90;;;;;;5055826;28;19915;-78
2022/07/27 04:40:31;;;;;;;;;;;12.80;99.90;;;;;;5073801;28;19909;-80
2022/07/27 04:42:56;;;;;;;;;;;12.50;99.90;;;;;;5073546;28;19920;-80
2022/07/27 04:45:22;;;;;;;;;;;12.30;99.90;;;;;;5073889;28;20280;-80
2022/07/27 04:47:47;;;;;;;;;;;12.40;99.90;;;;;;5073756;28;19915;-79
2022/07/27 04:50:13;;;;;;;;;;;12.50;99.90;;;;;;5073657;28;19966;-82
2022/07/27 04:52:39;;;;;;;;;;;12.80;99.90;;;;;;5074186;28;19999;-79
2022/07/27 04:55:04;;;;;;;;;;;12.80;99.90;;;;;;5073650;28;19916;-79
2022/07/27 04:57:30;;;;;;;;;;;12.90;99.90;;;;;;5073835;28;19913;-77
2022/07/27 04:59:55;;;;;;;;;;;13.10;99.90;;;;;;5073670;28;19909;-80
2022/07/27 05:02:21;;;;;;;;;;;13.30;99.90;;;;;;5074008;28;19915;-80
2022/07/27 05:04:47;;;;;;;;;;;13.30;99.90;;;;;;5073513;28;19909;-77
2022/07/27 05:07:12;;;;;;;;;;;13.30;99.90;;;;;;5073542;28;19915;-77
2022/07/27 05:09:38;;;;;;;;;;;13.40;99.90;;;;;;5073466;28;20357;-80
2022/07/27 05:12:04;;;;;;;;;;;13.40;99.90;;;;;;5073484;28;20422;-78
2022/07/27 05:14:29;;;;;;;;;;;13.30;99.90;;;;;;5074025;28;19982;-79
2022/07/27 05:16:55;;;;;;;;;;;13.10;99.90;;;;;;5073661;28;19916;-77
2022/07/27 05:19:21;;;;;;;;;;;12.90;99.90;;;;;;5073463;28;19912;-78
2022/07/27 05:21:46;;;;;;;;;;;12.80;99.90;;;;;;5075671;28;19908;-80
2022/07/27 05:24:12;;;;;;;;;;;12.90;99.90;;;;;;5077791;28;19958;-80
2022/07/27 05:26:37;;;;;;;;;;;13.10;99.90;;;;;;5077467;28;20399;-77
2022/07/27 05:29:03;;;;;;;;;;;13.20;99.90;;;;;;5077290;28;19912;-80
2022/07/27 05:31:29;;;;;;;;;;;13.40;99.90;;;;;;5077325;28;19909;-80
2022/07/27 05:33:54;;;;;;;;;;;13.60;99.90;;;;;;5077262;28;20335;-82
2022/07/27 05:36:20;;;;;;;;;;;13.60;99.90;;;;;;5077230;28;19919;-80
2022/07/27 05:38:46;;;;;;;;;;;13.80;99.90;;;;;;5077292;28;19908;-77
2022/07/27 05:41:11;;;;;;;;;;;14.00;99.90;;;;;;5076925;28;19966;-78
2022/07/27 05:43:37;;;;;;;;;;;14.10;99.90;;;;;;5077136;28;19924;-79
2022/07/27 05:46:02;;;;;;;;;;;14.20;99.90;;;;;;5077241;28;19916;-79
2022/07/27 05:48:28;;;;;;;;;;;14.20;99.90;;;;;;5076851;28;20011;-78
2022/07/27 05:50:53;;;;;;;;;;;14.30;99.90;;;;;;5077231;28;19908;-79
2022/07/27 05:53:19;;;;;;;;;;;14.40;99.90;;;;;;5076921;28;19909;-79
2022/07/27 05:55:45;;;;;;;;;;;14.50;99.90;;;;;;5076776;28;20435;-79
2022/07/27 05:58:10;;;;;;;;;;;14.70;99.90;;;;;;5076822;28;19996;-77
2022/07/27 06:00:36;;;;;;;;;;;14.70;99.90;;;;;;5076916;28;19958;-80
2022/07/27 06:03:01;;;;;;;;;;;14.80;99.90;;;;;;5077224;28;20246;-80
2022/07/27 06:05:27;;;;;;;;;;;14.80;99.90;;;;;;5076661;28;19915;-79
2022/07/27 06:07:58;;;;;;;;;;;14.80;99.90;;;;;;5076564;28;20033;-78
2022/07/27 06:10:31;;;;;;;;;;;14.80;99.90;;;;;;5076736;28;20336;-82
2022/07/27 06:12:57;;;;;;;;;;;14.90;99.90;;;;;;5076504;28;19950;-81
2022/07/27 06:15:23;;;;;;;;;;;15.10;99.90;;;;;;5077138;28;19908;-80
2022/07/27 06:17:51;;;;;;;;;;;15.10;99.90;;;;;;5076518;28;19947;-80
2022/07/27 06:20:17;;;;;;;;;;;15.20;99.90;;;;;;5076434;28;19916;-78
2022/07/27 06:22:46;;;;;;;;;;;15.40;99.90;;;;;;5076558;28;19917;-81
2022/07/27 06:25:12;;;;;;;;;;;15.50;99.90;;;;;;5058425;28;20363;-77
2022/07/27 06:27:38;;;;;;;;;;;15.60;99.90;;;;;;5076378;28;19944;-79
2022/07/27 06:30:04;;;;;;;;;;;15.60;99.90;;;;;;5076113;28;19920;-81
2022/07/27 06:32:29;;;;;;;;;;;15.60;99.90;;;;;;5057090;28;20276;-79
2022/07/27 06:34:55;;;;;;;;;;;15.60;99.90;;;;;;5075966;28;19908;-78
2022/07/27 06:37:20;;;;;;;;;;;15.60;99.90;;;;;;5076254;28;19913;-80
2022/07/27 06:39:46;;;;;;;;;;;15.70;99.90;;;;;;5076039;28;20403;-79
2022/07/27 06:42:14;;;;;;;;;;;15.80;99.90;;;;;;5075970;28;19927;-78
2022/07/27 06:44:40;;;;;;;;;;;15.80;99.90;;;;;;5075986;28;19908;-79
2022/07/27 06:47:06;;;;;;;;;;;16.10;99.90;;;;;;5075893;28;19909;-77
2022/07/27 06:49:32;;;;;;;;;;;16.30;99.90;;;;;;5075704;28;20288;-77
2022/07/27 06:51:57;;;;;;;;;;;16.10;99.90;;;;;;5075867;28;19914;-79
2022/07/27 06:54:23;;;;;;;;;;;16.40;99.90;;;;;;5057889;28;19908;-80
2022/07/27 06:56:49;;;;;;;;;;;16.60;99.90;;;;;;5075839;28;19909;-80
2022/07/27 06:59:14;;;;;;;;;;;16.60;99.90;;;;;;5075786;28;19915;-82
2022/07/27 07:01:40;;;;;;;;;;;16.70;99.90;;;;;;5075666;28;19948;-79
2022/07/27 07:04:05;;;;;;;;;;;16.90;99.90;;;;;;5057717;28;20286;-79
2022/07/27 07:06:31;;;;;;;;;;;17.20;99.90;;;;;;5075575;28;19932;-78
2022/07/27 07:08:57;;;;;;;;;;;17.20;99.90;;;;;;5075734;28;20280;-82
2022/07/27 07:11:22;;;;;;;;;;;17.50;99.90;;;;;;5075498;28;20063;-83
2022/07/27 07:13:48;;;;;;;;;;;17.80;99.90;;;;;;5075443;28;19908;-79
2022/07/27 07:16:14;;;;;;;;;;;18.00;99.90;;;;;;5076113;28;20331;-78
2022/07/27 07:18:39;;;;;;;;;;;18.10;99.90;;;;;;5075430;28;20285;-81
2022/07/27 07:21:05;;;;;;;;;;;18.20;99.90;;;;;;5075289;28;19913;-79
2022/07/27 07:23:30;;;;;;;;;;;18.30;99.90;;;;;;5075440;28;19999;-81
2022/07/27 07:25:56;;;;;;;;;;;18.80;99.90;;;;;;5075510;28;19915;-82
2022/07/27 07:28:21;;;;;;;;;;;20.90;99.90;;;;;;5075284;28;19923;-79
2022/07/27 07:30:48;;;;;;;;;;;23.50;98.50;;;;;;5075122;28;20391;-83
2022/07/27 07:33:13;;;;;;;;;;;25.70;87.70;;;;;;5075036;28;19944;-81
2022/07/27 07:35:40;;;;;;;;;;;27.20;77.70;;;;;;5074912;28;19984;-82
2022/07/27 07:38:05;;;;;;;;;;;28.30;77.60;;;;;;5075269;28;19908;-78
2022/07/27 07:40:31;;;;;;;;;;;28.60;72.40;;;;;;5074984;28;19908;-81
2022/07/27 07:43:01;;;;;;;;;;;28.20;68.00;;;;;;5074607;28;19921;-81
2022/07/27 07:45:28;;;;;;;;;;;28.20;69.50;;;;;;5074363;28;19908;-79
2022/07/27 07:47:54;;;;;;;;;;;28.60;66.80;;;;;;5074635;28;20377;-78
2022/07/27 07:50:20;;;;;;;;;;;28.30;66.60;;;;;;5074549;28;19920;-80
2022/07/27 07:52:47;;;;;;;;;;;27.70;67.40;;;;;;5074619;28;19908;-81
2022/07/27 07:55:12;;;;;;;;;;;26.90;66.90;;;;;;5074618;28;19916;-82
2022/07/27 07:57:38;;;;;;;;;;;26.80;67.60;;;;;;5074485;28;19908;-81
2022/07/27 08:00:05;;;;;;;;;;;26.50;67.80;;;;;;5056510;28;20368;-81
2022/07/27 08:02:30;;;;;;;;;;;26.50;68.90;;;;;;5074736;28;19919;-81
2022/07/27 08:04:56;;;;;;;;;;;25.80;66.60;;;;;;5074432;28;19909;-81
2022/07/27 08:07:21;;;;;;;;;;;26.00;68.10;;;;;;5074318;28;19912;-84
2022/07/27 08:09:47;;;;;;;;;;;25.80;68.50;;;;;;5074255;28;19913;-83
2022/07/27 08:12:13;;;;;;;;;;;26.20;69.00;;;;;;5074268;28;19954;-80
2022/07/27 08:14:38;;;;;;;;;;;25.80;67.60;;;;;;5074814;28;20288;-80
2022/07/27 08:17:04;;;;;;;;;;;25.60;68.40;;;;;;5074164;28;19916;-84
2022/07/27 08:19:29;;;;;;;;;;;26.40;67.50;;;;;;5074102;28;19991;-80
2022/07/27 08:21:55;;;;;;;;;;;26.30;65.70;;;;;;5074371;28;19916;-81
2022/07/27 08:24:21;;;;;;;;;;;26.20;63.70;;;;;;5074353;28;20479;-83
2022/07/27 08:26:46;;;;;;;;;;;25.80;62.50;;;;;;5073894;28;19915;-80
2022/07/27 08:29:12;;;;;;;;;;;25.50;63.70;;;;;;5073897;28;19912;-81
2022/07/27 08:31:37;;;;;;;;;;;25.60;64.20;;;;;;5073936;28;19909;-80
2022/07/27 08:34:03;;;;;;;;;;;26.00;63.10;;;;;;5073927;28;20312;-80
2022/07/27 08:36:28;;;;;;;;;;;25.80;64.10;;;;;;5073903;28;19909;-81
2022/07/27 08:38:54;;;;;;;;;;;26.30;63.50;;;;;;5073828;28;19908;-80
2022/07/27 08:41:21;;;;;;;;;;;26.60;64.30;;;;;;5073601;28;19915;-81
2022/07/27 08:43:47;;;;;;;;;;;26.50;62.80;;;;;;5055632;28;19951;-80
2022/07/27 08:46:13;;;;;;;;;;;26.90;62.90;;;;;;5055871;28;19942;-80
2022/07/27 08:48:39;;;;;;;;;;;27.40;61.30;;;;;;5073739;28;20365;-78
2022/07/27 08:51:06;;;;;;;;;;;26.90;60.70;;;;;;5073700;28;19921;-81
2022/07/27 08:53:32;;;;;;;;;;;25.70;61.60;;;;;;5073906;28;19908;-82
2022/07/27 08:55:58;;;;;;;;;;;25.00;63.30;;;;;;5072855;28;19944;-78
2022/07/27 08:58:23;;;;;;;;;;;25.70;63.50;;;;;;5073625;28;19912;-78
2022/07/27 09:00:49;;;;;;;;;;;27.40;62.40;;;;;;5073571;28;20388;-83
2022/07/27 09:03:16;;;;;;;;;;;28.40;60.90;;;;;;5073577;28;19995;-82
2022/07/27 09:05:46;;;;;;;;;;;29.10;59.20;;;;;;5055570;28;19930;-82
2022/07/27 09:08:16;;;;;;;;;;;28.50;58.30;;;;;;5073575;28;19908;-81
2022/07/27 09:10:42;;;;;;;;;;;28.00;58.40;;;;;;5073508;28;19908;-83
2022/07/27 09:13:22;;;;;;;;;;;27.40;59.20;;;;;;5073472;28;20396;-82
2022/07/27 09:15:49;;;;;;;;;;;28.00;58.80;;;;;;5055995;28;20292;-82
2022/07/27 09:18:19;;;;;;;;;;;27.40;58.40;;;;;;5073409;28;19987;-81
2022/07/27 09:20:45;;;;;;;;;;;26.80;58.80;;;;;;5073410;28;19908;-82
2022/07/27 09:23:24;;;;;;;;;;;26.50;59.80;;;;;;5073504;28;19958;-81
2022/07/27 09:26:07;;;;;;;;;;;26.70;59.50;;;;;;5073588;28;19908;-81
2022/07/27 09:28:32;;;;;;;;;;;26.50;59.80;;;;;;5073307;28;19958;-79
2022/07/27 09:31:03;;;;;;;;;;;27.20;59.90;;;;;;5073251;28;19908;-80
2022/07/27 09:33:29;;;;;;;;;;;28.30;57.70;;;;;;5073484;28;19913;-83
2022/07/27 09:35:58;;;;;;;;;;;28.60;56.10;;;;;;5073210;28;19946;-80
2022/07/27 09:38:24;;;;;;;;;;;28.70;56.90;;;;;;5073211;28;19908;-83
2022/07/27 09:41:00;;;;;;;;;;;29.30;55.00;;;;;;5055188;28;19915;-84
2022/07/27 09:43:27;;;;;;;;;;;29.00;56.40;;;;;;5072772;28;19920;-81
2022/07/27 09:45:53;;;;;;;;;;;30.50;53.60;;;;;;5073254;28;19914;-79
2022/07/27 09:48:19;;;;;;;;;;;31.40;51.80;;;;;;5073005;28;19999;-82
2022/07/27 09:50:46;;;;;;;;;;;31.40;51.80;;;;;;5073116;28;19908;-82
2022/07/27 09:53:15;;;;;;;;;;;30.60;51.70;;;;;;5072570;28;20366;-83
2022/07/27 09:55:41;;;;;;;;;;;29.40;52.70;;;;;;5073165;28;19961;-81
2022/07/27 09:58:07;;;;;;;;;;;28.60;53.80;;;;;;5073059;28;19966;-81
2022/07/27 10:00:33;;;;;;;;;;;28.00;54.40;;;;;;5073264;28;20307;-82
2022/07/27 10:02:58;;;;;;;;;;;27.70;55.10;;;;;;5055013;28;20371;-79
2022/07/27 10:05:24;;;;;;;;;;;28.00;55.20;;;;;;5073227;28;19909;-82
2022/07/27 10:07:50;;;;;;;;;;;27.90;54.80;;;;;;5074808;28;20006;-79
2022/07/27 10:10:16;;;;;;;;;;;28.10;55.30;;;;;;5076569;28;19938;-81
2022/07/27 10:12:43;;;;;;;;;;;28.60;56.10;;;;;;5076624;28;19912;-81
2022/07/27 10:15:09;;;;;;;;;;;32.60;50.80;;;;;;5077066;28;20266;-84
2022/07/27 10:17:36;;;;;;;;;;;32.90;50.30;;;;;;5076523;28;19909;-80
2022/07/27 10:20:07;;;;;;;;;;;31.90;50.60;;;;;;5076551;28;19909;-80
2022/07/27 10:22:49;;;;;;;;;;;32.90;50.30;;;;;;5076494;28;19940;-80
2022/07/27 10:25:14;;;;;;;;;;;36.60;46.50;;;;;;5076553;28;19915;-83
2022/07/27 10:27:40;;;;;;;;;;;40.00;43.80;;;;;;5076286;28;19912;-81
2022/07/27 10:30:06;;;;;;;;;;;42.50;40.10;;;;;;5076271;28;20282;-82
2022/07/27 10:32:32;;;;;;;;;;;42.00;37.80;;;;;;5076224;28;20007;-81
2022/07/27 10:35:01;;;;;;;;;;;41.80;37.80;;;;;;5076189;28;19915;-79
2022/07/27 10:37:27;;;;;;;;;;;42.20;38.10;;;;;;5076510;28;19909;-81
2022/07/27 10:42:46;;;;;;;;;;;45.20;36.70;;;;;;5075927;28;20012;-80
2022/07/27 10:45:13;;;;;;;;;;;44.30;36.00;;;;;;5076260;28;19919;-83
2022/07/27 10:47:42;;;;;;;;;;;42.80;35.30;;;;;;5075922;28;19913;-84
2022/07/27 10:50:16;;;;;;;;;;;41.10;36.70;;;;;;5075895;28;20336;-80
2022/07/27 10:52:46;;;;;;;;;;;38.10;38.10;;;;;;5075986;28;19962;-81
2022/07/27 10:55:30;;;;;;;;;;;35.50;40.20;;;;;;5075804;28;19909;-80
2022/07/27 10:57:57;;;;;;;;;;;33.70;41.00;;;;;;5075942;28;20433;-80
2022/07/27 11:00:41;;;;;;;;;;;33.50;41.80;;;;;;5075894;28;19912;-80
2022/07/27 11:03:06;;;;;;;;;;;34.50;40.70;;;;;;5075664;28;19908;-79
2022/07/27 11:05:32;;;;;;;;;;;34.00;41.20;;;;;;5076066;28;19916;-80
2022/07/27 11:07:58;;;;;;;;;;;34.00;41.60;;;;;;5075748;28;19909;-81
2022/07/27 11:10:26;;;;;;;;;;;33.70;41.60;;;;;;5075616;28;19909;-80
2022/07/27 11:12:52;;;;;;;;;;;32.70;42.30;;;;;;5057494;28;20003;-79
2022/07/27 11:15:17;;;;;;;;;;;32.50;43.20;;;;;;5075970;28;19955;-80
2022/07/27 11:17:47;;;;;;;;;;;32.50;43.20;;;;;;5075373;28;19908;-80
2022/07/27 11:20:13;;;;;;;;;;;33.20;43.10;;;;;;5074462;28;19916;-78
2022/07/27 11:22:40;;;;;;;;;;;33.10;41.90;;;;;;5075357;28;19953;-77
2022/07/27 11:25:06;;;;;;;;;;;33.20;42.80;;;;;;5075207;28;19908;-82
2022/07/27 11:27:32;;;;;;;;;;;33.90;42.60;;;;;;5075186;28;20003;-79
2022/07/27 11:29:57;;;;;;;;;;;34.90;41.60;;;;;;5075429;28;19959;-81
2022/07/27 11:32:23;;;;;;;;;;;35.70;40.90;;;;;;5075096;28;20272;-81
2022/07/27 11:34:49;;;;;;;;;;;35.10;40.80;;;;;;5075113;28;19908;-79
2022/07/27 11:37:18;;;;;;;;;;;34.70;41.40;;;;;;5075059;28;19915;-82
2022/07/27 11:39:45;;;;;;;;;;;34.50;41.40;;;;;;5056787;28;19919;-80
2022/07/27 11:42:10;;;;;;;;;;;34.00;41.60;;;;;;5074996;28;20269;-83
2022/07/27 11:44:37;;;;;;;;;;;32.40;42.70;;;;;;5074905;28;19909;-83
2022/07/27 11:47:03;;;;;;;;;;;32.70;42.70;;;;;;5074840;28;19962;-81
2022/07/27 11:49:29;;;;;;;;;;;33.00;42.40;;;;;;5074722;28;20365;-81
2022/07/27 11:52:00;;;;;;;;;;;33.10;42.00;;;;;;5074895;28;19909;-82
2022/07/27 11:54:27;;;;;;;;;;;32.60;42.50;;;;;;5074989;28;19909;-81
2022/07/27 11:56:54;;;;;;;;;;;32.80;42.80;;;;;;5074590;28;19909;-82
2022/07/27 11:59:20;;;;;;;;;;;33.70;41.20;;;;;;5074502;28;20391;-83
2022/07/27 12:01:46;;;;;;;;;;;35.20;40.30;;;;;;5074543;28;19908;-84
2022/07/27 12:04:17;;;;;;;;;;;37.70;40.00;;;;;;5074675;28;20448;-84
2022/07/27 12:06:45;;;;;;;;;;;37.70;37.90;;;;;;5074594;28;19909;-82
2022/07/27 12:09:12;;;;;;;;;;;38.20;38.90;;;;;;5074404;28;20455;-80
2022/07/27 12:11:44;;;;;;;;;;;38.40;36.50;;;;;;5074585;28;20281;-83
2022/07/27 12:14:11;;;;;;;;;;;39.30;37.40;;;;;;5074277;28;19908;-83
2022/07/27 12:16:36;;;;;;;;;;;41.10;35.50;;;;;;5074764;28;19916;-81
2022/07/27 12:19:02;;;;;;;;;;;42.50;35.60;;;;;;5074177;28;19912;-81
2022/07/27 12:21:27;;;;;;;;;;;43.60;34.70;;;;;;5056239;28;19908;-82
2022/07/27 12:23:53;;;;;;;;;;;43.90;34.50;;;;;;5074021;28;19915;-81
2022/07/27 12:26:20;;;;;;;;;;;43.20;34.00;;;;;;5056324;28;19912;-80
2022/07/27 12:28:45;;;;;;;;;;;44.50;34.10;;;;;;5074183;28;19916;-80
2022/07/27 12:31:17;;;;;;;;;;;43.80;34.30;;;;;;5074043;28;20360;-81
2022/07/27 12:33:43;;;;;;;;;;;42.10;34.50;;;;;;5073946;28;19908;-81
2022/07/27 12:36:09;;;;;;;;;;;41.40;35.40;;;;;;5074391;28;19961;-82
2022/07/27 12:38:47;;;;;;;;;;;39.70;36.00;;;;;;5073792;28;20003;-81
2022/07/27 12:41:29;;;;;;;;;;;39.20;36.30;;;;;;5073768;28;19908;-81
2022/07/27 12:44:05;;;;;;;;;;;39.10;36.60;;;;;;5074049;28;19909;-78
2022/07/27 12:46:31;;;;;;;;;;;38.40;36.60;;;;;;5073913;28;19920;-78
2022/07/27 12:48:56;;;;;;;;;;;37.70;37.50;;;;;;5073706;28;19909;-78
2022/07/27 12:51:25;;;;;;;;;;;37.80;37.60;;;;;;5073801;28;19997;-81
2022/07/27 12:53:50;;;;;;;;;;;39.00;36.50;;;;;;5073670;28;19909;-80
2022/07/27 12:56:16;;;;;;;;;;;38.10;36.50;;;;;;5073981;28;20042;-79
2022/07/27 12:58:58;;;;;;;;;;;37.30;37.20;;;;;;5073507;28;19958;-80
2022/07/27 13:01:24;;;;;;;;;;;37.00;37.00;;;;;;5073598;28;20041;-81
2022/07/27 13:03:49;;;;;;;;;;;37.40;37.60;;;;;;5073819;28;19950;-82
2022/07/27 13:06:15;;;;;;;;;;;39.30;36.20;;;;;;5073681;28;19916;-80
2022/07/27 13:08:41;;;;;;;;;;;38.80;35.90;;;;;;5073531;28;19912;-80
2022/07/27 13:11:07;;;;;;;;;;;39.20;36.30;;;;;;5073727;28;19916;-83
2022/07/27 13:13:32;;;;;;;;;;;40.60;36.30;;;;;;5073474;28;19909;-81
2022/07/27 13:15:58;;;;;;;;;;;42.10;35.40;;;;;;5073997;28;19909;-83
2022/07/27 13:18:24;;;;;;;;;;;41.00;35.20;;;;;;5073387;28;19908;-81
2022/07/27 13:20:50;;;;;;;;;;;40.70;35.30;;;;;;5073422;28;19947;-82
2022/07/27 13:23:15;;;;;;;;;;;40.60;35.40;;;;;;5073516;28;19948;-80
2022/07/27 13:25:41;;;;;;;;;;;40.80;34.90;;;;;;5073317;28;19921;-80
2022/07/27 13:28:07;;;;;;;;;;;41.30;35.10;;;;;;5073729;28;19952;-82
2022/07/27 13:30:32;;;;;;;;;;;38.60;35.60;;;;;;5073270;28;19908;-78
2022/07/27 13:32:59;;;;;;;;;;;38.00;36.10;;;;;;5073322;28;19936;-80
2022/07/27 13:35:25;;;;;;;;;;;35.90;37.60;;;;;;5073351;28;19909;-83
2022/07/27 13:37:51;;;;;;;;;;;35.80;37.70;;;;;;5073471;28;19919;-80
2022/07/27 13:40:16;;;;;;;;;;;36.70;37.40;;;;;;5073435;28;19935;-80
2022/07/27 13:42:42;;;;;;;;;;;36.80;37.00;;;;;;5074602;28;20001;-80
2022/07/27 13:45:08;;;;;;;;;;;37.00;37.20;;;;;;5077202;28;19992;-78
2022/07/27 13:47:33;;;;;;;;;;;37.90;36.40;;;;;;5077068;28;19912;-80
2022/07/27 13:49:59;;;;;;;;;;;36.90;36.80;;;;;;5077033;28;19909;-80
2022/07/27 13:52:24;;;;;;;;;;;35.40;37.50;;;;;;5077108;28;19912;-78
2022/07/27 13:54:50;;;;;;;;;;;33.50;38.70;;;;;;5077115;28;19912;-81
2022/07/27 13:57:16;;;;;;;;;;;32.70;39.60;;;;;;5076913;28;19914;-82
2022/07/27 13:59:41;;;;;;;;;;;33.20;39.80;;;;;;5076837;28;19916;-81
2022/07/27 14:02:07;;;;;;;;;;;33.70;39.20;;;;;;5076992;28;19915;-80
2022/07/27 14:04:34;;;;;;;;;;;33.50;39.50;;;;;;5076851;28;19916;-81
2022/07/27 14:07:00;;;;;;;;;;;33.10;40.10;;;;;;5076762;28;19912;-82
2022/07/27 14:10:30;;;;;;;;;;;32.90;39.90;;;;;;5076641;28;20432;-82
2022/07/27 14:12:11;;;;;;;;;;;32.90;39.90;;;;;;5076271;28;19980;-79
2022/07/27 14:14:37;;;;;;;;;;;33.20;39.80;;;;;;5076605;28;20412;-78
2022/07/27 14:17:02;;;;;;;;;;;34.00;40.40;;;;;;5077052;28;19908;-77